Time;durP1;ratioP1;P1;durP2;ratioP2;P2;SDS_P1;SDS_P2;PMS_P1;PMS_P2;Temp;Humidity;BMP_temperature;BMP_pressure;BME280_temperature;BME280_humidity;BME280_pressure;Samples;Min_cycle;Max_cycle;Signal;HPM_P1;HPM_P2
2022/06/10 00:01:18;;;;;;;16.20;9.27;;;;;;;20.34;72.95;98095.56;4487281;31;20075;-79
2022/06/10 00:03:44;;;;;;;17.30;9.52;;;;;;;20.41;72.07;98088.56;4487169;31;20080;-79
2022/06/10 00:06:11;;;;;;;17.45;9.85;;;;;;;20.35;72.23;98095.41;4501314;31;20145;-79
2022/06/10 00:08:41;;;;;;;15.63;9.50;;;;;;;20.24;73.07;98093.03;4487125;31;20742;-79
2022/06/10 00:11:08;;;;;;;17.30;8.57;;;;;;;20.33;72.70;98099.25;4486884;31;20151;-79
2022/06/10 00:13:36;;;;;;;18.67;9.25;;;;;;;20.25;72.79;98100.06;4501143;31;20084;-80
2022/06/10 00:16:02;;;;;;;;;;;;;;;20.40;72.11;98111.81;4503841;31;20095;-80
2022/06/10 00:18:29;;;;;;;16.60;8.65;;;;;;;20.34;72.67;98119.63;4489318;31;20303;-79
2022/06/10 00:20:56;;;;;;;16.23;8.98;;;;;;;20.23;72.71;98126.97;4489517;31;20451;-81
2022/06/10 00:23:22;;;;;;;14.70;8.02;;;;;;;20.47;71.71;98111.16;4489651;31;20079;-81
2022/06/10 00:25:47;;;;;;;13.00;7.90;;;;;;;20.57;71.23;98111.84;4503998;31;20103;-81
2022/06/10 00:28:14;;;;;;;16.50;8.68;;;;;;;20.66;70.41;98112.75;4489512;31;20119;-81
2022/06/10 00:30:39;;;;;;;16.95;8.77;;;;;;;20.68;70.33;98119.59;4503775;31;20083;-81
2022/06/10 00:33:05;;;;;;;15.60;8.70;;;;;;;20.57;70.92;98123.41;4503977;31;20071;-81
2022/06/10 00:35:31;;;;;;;14.20;8.45;;;;;;;20.37;71.94;98128.19;4476149;31;20097;-82
2022/06/10 00:37:57;;;;;;;15.30;8.63;;;;;;;20.49;71.48;98130.56;4489155;31;20122;-82
2022/06/10 00:40:26;;;;;;;15.77;8.98;;;;;;;20.67;70.56;98130.47;4503461;31;20498;-81
2022/06/10 00:42:54;;;;;;;13.88;8.07;;;;;;;20.52;71.09;98132.91;4503560;31;20079;-81
2022/06/10 00:45:47;;;;;;;14.63;8.38;;;;;;;20.76;70.11;98124.94;4489460;31;20467;-81
2022/06/10 00:48:16;;;;;;;13.85;8.20;;;;;;;20.68;70.40;98124.13;4503521;31;20159;-81
2022/06/10 00:50:42;;;;;;;15.52;8.43;;;;;;;20.66;70.36;98115.41;4503356;31;20071;-81
2022/06/10 00:53:10;;;;;;;18.27;7.65;;;;;;;20.76;69.73;98118.78;4488968;31;20480;-81
2022/06/10 00:55:37;;;;;;;13.93;7.75;;;;;;;20.65;69.45;98121.75;4503460;31;20100;-81
2022/06/10 00:58:06;;;;;;;15.20;7.15;;;;;;;20.92;68.40;98121.50;4488964;31;20152;-81
2022/06/10 01:00:32;;;;;;;12.20;6.80;;;;;;;20.82;68.64;98120.78;4503185;31;20071;-81
2022/06/10 01:02:57;;;;;;;13.45;7.87;;;;;;;20.80;68.74;98133.50;4488713;31;20102;-81
2022/06/10 01:05:25;;;;;;;13.43;8.18;;;;;;;20.59;69.37;98128.56;4503251;31;20096;-80
2022/06/10 01:07:55;;;;;;;13.57;7.82;;;;;;;20.78;68.68;98117.63;4503311;31;20148;-80
2022/06/10 01:10:21;;;;;;;13.90;8.50;;;;;;;20.87;68.61;98131.00;4488890;31;20098;-80
2022/06/10 01:13:22;;;;;;;13.13;7.68;;;;;;;20.83;68.26;98132.34;4499475;31;111759;-79
2022/06/10 01:16:02;;;;;;;14.20;8.02;;;;;;;20.74;68.85;98134.16;4494762;31;20108;-81
2022/06/10 01:18:36;;;;;;;15.68;7.85;;;;;;;21.00;67.76;98147.44;4489228;31;20125;-79
2022/06/10 01:21:39;;;;;;;14.45;8.27;;;;;;;20.73;68.68;98148.56;4489219;31;20201;-80
2022/06/10 01:24:39;;;;;;;13.73;8.05;;;;;;;20.72;68.74;98153.06;4503158;31;20114;-81
2022/06/10 01:27:48;;;;;;;13.32;8.88;;;;;;;20.76;68.77;98153.56;4503198;31;20356;-81
2022/06/10 01:30:19;;;;;;;14.35;8.45;;;;;;;20.62;69.45;98155.03;4438208;32;20427;-81
2022/06/10 01:32:52;;;;;;;15.50;9.13;;;;;;;20.59;69.56;98158.91;4438350;32;20101;-81
2022/06/10 01:35:24;;;;;;;15.95;9.98;;;;;;;20.61;69.68;98162.25;4425342;32;20105;-81
2022/06/10 01:37:58;;;;;;;14.98;9.65;;;;;;;20.54;69.77;98161.19;4425602;32;20116;-80
2022/06/10 01:40:34;;;;;;;15.07;8.95;;;;;;;20.79;68.79;98162.13;4425463;32;20109;-80
2022/06/10 01:43:20;;;;;;;16.45;9.25;;;;;;;20.66;69.19;98160.91;4425558;32;20097;-81
2022/06/10 01:45:45;;;;;;;15.20;9.07;;;;;;;20.59;69.37;98155.31;4438272;32;20158;-80
2022/06/10 01:48:20;;;;;;;16.37;9.70;;;;;;;20.68;69.01;98151.72;4438124;32;20110;-80
2022/06/10 01:50:49;;;;;;;15.38;9.20;;;;;;;20.85;68.57;98163.31;4425579;32;20105;-80
2022/06/10 01:53:25;;;;;;;14.85;9.55;;;;;;;20.80;68.42;98165.63;4438251;32;20120;-80
2022/06/10 01:55:56;;;;;;;16.12;9.93;;;;;;;20.62;69.15;98195.19;4425493;32;20139;-80
2022/06/10 01:58:38;;;;;;;16.12;10.25;;;;;;;20.69;69.05;98200.75;4438254;32;20167;-80
2022/06/10 02:01:11;;;;;;;15.88;10.18;;;;;;;20.61;69.38;98201.56;4425435;32;20147;-80
2022/06/10 02:04:01;;;;;;;18.55;10.55;;;;;;;20.45;70.21;98198.78;4425414;32;20175;-80
2022/06/10 02:06:31;;;;;;;17.83;10.85;;;;;;;20.51;70.11;98209.66;4469023;31;20429;-80
2022/06/10 02:09:03;;;;;;;20.23;11.07;;;;;;;20.30;71.09;98195.84;4488832;31;20100;-80
2022/06/10 02:11:30;;;;;;;16.60;10.52;;;;;;;20.42;70.25;98200.78;4488580;31;20111;-80
2022/06/10 02:14:04;;;;;;;18.60;11.27;;;;;;;20.18;71.91;98198.81;4488576;31;20111;-80
2022/06/10 02:16:36;;;;;;;18.55;10.98;;;;;;;19.91;73.50;98188.31;4488785;31;20092;-80
2022/06/10 02:19:37;;;;;;;16.92;9.88;;;;;;;20.04;73.10;98188.72;4488833;31;20108;-82
2022/06/10 02:22:08;;;;;;;16.27;9.98;;;;;;;20.26;72.32;98189.97;4488464;31;20103;-81
2022/06/10 02:24:38;;;;;;;17.02;9.98;;;;;;;20.20;72.49;98204.84;4502795;31;20118;-81
2022/06/10 02:27:09;;;;;;;17.98;9.55;;;;;;;20.27;72.33;98223.78;4488318;31;20507;-81
2022/06/10 02:29:49;;;;;;;18.87;9.32;;;;;;;20.37;71.86;98220.97;4488351;31;20112;-81
2022/06/10 02:32:15;;;;;;;14.18;8.63;;;;;;;20.50;71.18;98232.06;4488356;31;20171;-81
2022/06/10 02:34:41;;;;;;;14.43;8.50;;;;;;;20.58;70.77;98241.97;4488422;31;20076;-81
2022/06/10 02:37:22;;;;;;;15.57;9.35;;;;;;;20.36;71.59;98251.41;4487579;31;20107;-82
2022/06/10 02:40:10;;;;;;;15.20;8.98;;;;;;;20.28;71.93;98241.50;4488269;31;20126;-81
2022/06/10 02:42:56;;;;;;;14.98;8.63;;;;;;;20.27;72.02;98252.38;4488397;31;20501;-81
2022/06/10 02:45:27;;;;;;;16.27;9.90;;;;;;;20.40;71.31;98245.56;4502496;31;20087;-81
2022/06/10 02:48:25;;;;;;;14.20;8.35;;;;;;;20.44;71.15;98256.81;4488187;31;20102;-80
2022/06/10 02:50:51;;;;;;;14.10;8.63;;;;;;;20.31;71.90;98240.34;4488590;31;20087;-80
2022/06/10 02:53:16;;;;;;;15.25;8.77;;;;;;;20.17;72.89;98231.09;4502730;31;20461;-81
2022/06/10 02:55:42;;;;;;;14.60;7.75;;;;;;;20.17;72.82;98247.13;4502675;31;20400;-80
2022/06/10 03:01:22;;;;;;;15.15;7.07;;;;;;;20.53;70.36;98250.50;4490231;31;20122;-81
2022/06/10 03:04:06;;;;;;;13.13;6.97;;;;;;;20.60;69.72;98269.44;4488049;31;20201;-80
2022/06/10 03:06:34;;;;;;;13.27;6.90;;;;;;;20.37;70.33;98266.47;4502398;31;20071;-80
2022/06/10 03:09:23;;;;;;;14.00;7.18;;;;;;;20.58;69.60;98264.22;4502258;31;20088;-81
2022/06/10 03:11:51;;;;;;;;;;;;;;;20.29;70.81;98267.25;4502483;31;20107;-80
2022/06/10 03:14:22;;;;;;;14.80;6.93;;;;;;;20.57;69.46;98267.91;4502241;31;20367;-81
2022/06/10 03:17:06;;;;;;;11.82;6.80;;;;;;;20.65;69.31;98269.81;4502241;31;20150;-81
2022/06/10 03:20:03;;;;;;;13.45;6.72;;;;;;;20.54;69.59;98276.25;4502216;31;20140;-80
2022/06/10 03:22:47;;;;;;;12.10;6.07;;;;;;;20.75;68.93;98272.38;4421874;32;20122;-80
2022/06/10 03:25:30;;;;;;;11.95;6.20;;;;;;;20.73;68.63;98277.87;4421964;32;20717;-80
2022/06/10 03:28:09;;;;;;;12.13;6.18;;;;;;;20.89;67.79;98276.25;4409168;32;20121;-81
2022/06/10 03:30:40;;;;;;;11.10;5.90;;;;;;;20.99;67.44;98272.44;4409024;32;20104;-81
2022/06/10 03:33:08;;;;;;;12.25;5.95;;;;;;;21.11;66.91;98272.13;4421800;32;20129;-81
2022/06/10 03:35:52;;;;;;;13.38;6.68;;;;;;;20.95;66.98;98273.75;4421816;32;20173;-79
2022/06/10 03:38:18;;;;;;;10.77;5.47;;;;;;;21.11;66.82;98274.81;4408810;32;20338;-79
2022/06/10 03:40:51;;;;;;;10.90;5.95;;;;;;;21.26;66.47;98272.34;4408957;32;20539;-80
2022/06/10 03:43:17;;;;;;;12.25;5.68;;;;;;;21.44;66.03;98274.91;4421679;32;20110;-80
2022/06/10 03:45:46;;;;;;;12.77;5.60;;;;;;;21.56;65.67;98278.97;4408953;32;20183;-80
2022/06/10 03:48:17;;;;;;;10.65;5.10;;;;;;;21.78;64.60;98280.13;4421594;32;20113;-80
2022/06/10 03:50:43;;;;;;;10.38;5.10;;;;;;;21.88;63.62;98285.31;4423152;32;20124;-80
2022/06/10 03:53:14;;;;;;;11.15;4.70;;;;;;;21.81;62.78;98277.13;4423573;32;20110;-80
2022/06/10 03:55:41;;;;;;;10.27;4.57;;;;;;;22.22;61.70;98286.97;4407134;32;20135;-79
2022/06/10 03:58:06;;;;;;;10.18;4.90;;;;;;;22.27;61.86;98293.53;4423782;32;20084;-79
2022/06/10 04:00:32;;;;;;;9.73;4.22;;;;;;;22.31;62.21;98294.00;4487990;32;20218;-80
2022/06/10 04:02:57;;;;;;;9.77;4.25;;;;;;;22.27;61.99;98290.84;4487820;32;20491;-80
2022/06/10 04:05:23;;;;;;;9.63;3.92;;;;;;;22.41;61.85;98291.13;4487827;32;20115;-82
2022/06/10 04:07:49;;;;;;;8.98;3.90;;;;;;;22.28;61.04;98289.00;4487955;32;20107;-82
2022/06/10 04:10:21;;;;;;;9.82;3.75;;;;;;;22.40;61.16;98295.69;4492608;31;20084;-82
2022/06/10 04:12:47;;;;;;;8.98;3.55;;;;;;;22.43;60.46;98289.97;4488597;31;20501;-82
2022/06/10 04:15:16;;;;;;;10.15;3.85;;;;;;;22.25;60.23;98290.19;4502216;31;20170;-82
2022/06/10 04:17:46;;;;;;;8.13;3.47;;;;;;;22.56;60.37;98298.34;4489675;31;20123;-82
2022/06/10 04:20:16;;;;;;;9.27;3.50;;;;;;;22.87;60.11;98292.19;4503705;31;20098;-83
2022/06/10 04:22:41;;;;;;;7.97;3.15;;;;;;;22.74;59.22;98298.09;4503501;31;20661;-82
2022/06/10 04:25:07;;;;;;;13.70;4.50;;;;;;;22.85;58.70;98301.41;4503592;31;20114;-82
2022/06/10 04:27:33;;;;;;;8.50;3.20;;;;;;;22.77;58.56;98302.28;4503502;31;20206;-82
2022/06/10 04:29:58;;;;;;;8.00;3.37;;;;;;;22.64;58.72;98310.91;4503524;31;20108;-82
2022/06/10 04:32:24;;;;;;;8.45;3.47;;;;;;;23.06;58.67;98308.91;4503568;31;20096;-82
2022/06/10 04:34:49;;;;;;;8.73;3.33;;;;;;;23.21;57.60;98314.38;4503543;31;20110;-82
2022/06/10 04:37:15;;;;;;;8.73;3.17;;;;;;;23.11;57.84;98311.91;4489026;31;20134;-83
2022/06/10 04:39:40;;;;;;;9.55;3.17;;;;;;;23.42;57.31;98325.34;4503578;31;20427;-83
2022/06/10 04:42:06;;;;;;;8.35;3.22;;;;;;;23.52;57.16;98330.50;4489015;31;20530;-82
2022/06/10 04:44:31;;;;;;;8.43;3.37;;;;;;;23.50;56.76;98337.91;4489075;31;20171;-83
2022/06/10 04:46:57;;;;;;;8.15;2.92;;;;;;;23.19;58.04;98340.59;4503468;31;20141;-82
2022/06/10 04:49:22;;;;;;;8.48;3.40;;;;;;;23.22;57.82;98342.91;4503412;31;20107;-82
2022/06/10 04:51:48;;;;;;;8.73;3.53;;;;;;;23.04;58.55;98346.69;4503224;31;20148;-83
2022/06/10 04:54:13;;;;;;;8.13;3.40;;;;;;;22.84;59.49;98340.03;4503281;31;20092;-82
2022/06/10 04:56:38;;;;;;;9.05;3.33;;;;;;;22.99;59.71;98345.53;4503391;31;20075;-82
2022/06/10 04:59:04;;;;;;;8.60;3.70;;;;;;;23.03;59.77;98341.50;4503258;31;20084;-82
2022/06/10 05:01:30;;;;;;;8.57;3.33;;;;;;;22.87;60.29;98342.34;4488669;31;20124;-82
2022/06/10 05:03:55;;;;;;;8.25;3.67;;;;;;;22.83;60.85;98349.94;4503401;31;20367;-83
2022/06/10 05:06:21;;;;;;;7.95;3.35;;;;;;;22.95;60.21;98343.19;4503182;31;20348;-82
2022/06/10 05:08:47;;;;;;;8.15;3.25;;;;;;;22.95;59.79;98345.03;4503289;31;20071;-82
2022/06/10 05:11:12;;;;;;;8.15;3.50;;;;;;;23.15;59.72;98351.69;4503142;31;20154;-82
2022/06/10 05:13:37;;;;;;;9.77;3.65;;;;;;;23.07;60.09;98348.22;4503186;31;20092;-82
2022/06/10 05:16:04;;;;;;;9.63;3.70;;;;;;;23.24;59.71;98340.91;4503136;31;20106;-82
2022/06/10 05:18:30;;;;;;;9.63;3.97;;;;;;;23.50;58.98;98354.84;4488846;31;20130;-82
2022/06/10 05:20:56;;;;;;;8.18;3.62;;;;;;;23.61;59.01;98361.69;4488804;31;20462;-82
2022/06/10 05:23:23;;;;;;;9.07;3.95;;;;;;;23.63;58.29;98362.34;4503100;31;20088;-82
2022/06/10 05:25:49;;;;;;;9.35;3.80;;;;;;;24.09;57.62;98361.56;4502998;31;20083;-82
2022/06/10 05:28:15;;;;;;;10.15;3.90;;;;;;;24.18;56.09;98365.84;4503113;31;20113;-81
2022/06/10 05:30:41;;;;;;;11.50;4.37;;;;;;;24.05;56.53;98376.38;4488751;31;20108;-82
2022/06/10 05:33:08;;;;;;;10.45;4.10;;;;;;;24.05;56.97;98379.06;4503378;31;20088;-82
2022/06/10 05:35:34;;;;;;;11.10;4.20;;;;;;;24.13;55.58;98379.03;4489090;31;20151;-83
2022/06/10 05:38:00;;;;;;;10.35;4.37;;;;;;;24.05;55.91;98382.63;4503314;31;20156;-82
2022/06/10 05:40:27;;;;;;;9.75;4.28;;;;;;;24.08;55.58;98379.53;4489010;31;20095;-84
2022/06/10 05:42:52;;;;;;;8.65;3.90;;;;;;;23.98;56.39;98394.28;4489017;31;20390;-82
2022/06/10 05:45:19;;;;;;;10.70;4.32;;;;;;;24.01;55.94;98393.91;4503239;31;20104;-82
2022/06/10 05:47:47;;;;;;;9.30;4.28;;;;;;;23.79;56.32;98401.78;4488698;31;20110;-82
2022/06/10 05:50:19;;;;;;;9.52;3.80;;;;;;;24.05;56.70;98401.44;4488576;31;20154;-83
2022/06/10 05:52:46;;;;;;;8.98;4.10;;;;;;;24.20;54.93;98403.34;4502932;31;20099;-82
2022/06/10 05:55:11;;;;;;;9.38;4.30;;;;;;;24.05;55.32;98406.84;4502960;31;20088;-82
2022/06/10 05:57:38;;;;;;;9.80;4.18;;;;;;;24.26;54.64;98403.47;4502840;31;20080;-84
2022/06/10 06:00:13;;;;;;;9.60;4.20;;;;;;;24.16;55.00;98407.41;4488549;31;20115;-83
2022/06/10 06:02:39;;;;;;;10.20;4.60;;;;;;;24.35;54.57;98409.63;4488857;31;20514;-83
2022/06/10 06:05:05;;;;;;;11.02;4.32;;;;;;;24.22;55.14;98412.94;4502733;31;20084;-84
2022/06/10 06:07:31;;;;;;;10.13;4.18;;;;;;;24.32;54.91;98426.16;4502626;31;20098;-83
2022/06/10 06:09:57;;;;;;;10.98;4.57;;;;;;;24.42;54.14;98421.34;4488457;31;20108;-83
2022/06/10 06:12:23;;;;;;;10.05;4.15;;;;;;;24.53;54.22;98425.47;4487454;31;20168;-83
2022/06/10 06:14:48;;;;;;;9.82;4.62;;;;;;;24.52;53.86;98419.25;4488123;31;20123;-83
2022/06/10 06:17:15;;;;;;;9.68;4.35;;;;;;;24.61;53.28;98424.56;4502683;31;20118;-84
2022/06/10 06:19:41;;;;;;;9.57;4.37;;;;;;;24.80;53.44;98421.38;4488403;31;20501;-83
2022/06/10 06:22:07;;;;;;;8.80;4.25;;;;;;;25.16;53.12;98431.41;4502711;31;20108;-81
2022/06/10 06:24:33;;;;;;;9.18;3.78;;;;;;;25.31;52.88;98431.44;4502601;31;20096;-82
2022/06/10 06:26:59;;;;;;;9.45;4.12;;;;;;;25.37;50.72;98425.31;4481690;31;20136;-82
2022/06/10 06:29:24;;;;;;;9.18;4.22;;;;;;;25.38;51.83;98435.06;4490409;31;20157;-82
2022/06/10 06:31:52;;;;;;;10.48;4.35;;;;;;;25.67;51.14;98436.88;4493348;31;20099;-82
2022/06/10 06:34:21;;;;;;;10.18;3.85;;;;;;;25.86;50.21;98445.38;4492142;31;20093;-80
2022/06/10 06:36:48;;;;;;;9.73;4.15;;;;;;;25.64;50.16;98441.81;4493783;31;20176;-81
2022/06/10 06:39:16;;;;;;;9.50;4.03;;;;;;;25.81;49.48;98447.84;4482917;31;20210;-84
2022/06/10 06:41:42;;;;;;;10.27;4.25;;;;;;;25.99;49.97;98437.47;4488336;31;20131;-83
2022/06/10 06:44:08;;;;;;;9.38;3.70;;;;;;;26.18;49.20;98436.00;4488233;31;20382;-83
2022/06/10 06:46:35;;;;;;;9.27;3.90;;;;;;;26.11;48.76;98445.06;4488196;31;20110;-83
2022/06/10 06:49:02;;;;;;;9.38;4.07;;;;;;;25.75;49.49;98444.03;4502534;31;20151;-83
2022/06/10 06:51:28;;;;;;;;;;;;;;;25.81;49.24;98453.25;4502714;31;20501;-83
2022/06/10 06:53:53;;;;;;;9.35;3.85;;;;;;;26.17;49.48;98455.09;4488190;31;19982;-83
2022/06/10 06:56:19;;;;;;;9.10;3.58;;;;;;;26.49;47.09;98453.75;4502452;31;20129;-83
2022/06/10 06:58:44;;;;;;;9.63;3.75;;;;;;;26.48;47.04;98455.63;4502412;31;20151;-83
2022/06/10 07:01:09;;;;;;;8.38;3.35;;;;;;;26.76;47.26;98451.31;4502358;31;20114;-83
2022/06/10 07:03:35;;;;;;;9.13;3.53;;;;;;;26.87;45.84;98450.78;4488048;31;20382;-83
2022/06/10 07:06:01;;;;;;;7.62;3.20;;;;;;;26.82;46.91;98454.06;4487956;31;20088;-83
2022/06/10 07:08:31;;;;;;;8.93;3.33;;;;;;;26.85;46.85;98450.12;4502352;31;20448;-83
2022/06/10 07:11:06;;;;;;;8.80;3.45;;;;;;;26.78;46.42;98452.78;4502182;31;20092;-83
2022/06/10 07:13:33;;;;;;;10.90;4.10;;;;;;;26.76;46.18;98451.31;4487948;31;20080;-83
2022/06/10 07:16:00;;;;;;;9.77;3.40;;;;;;;26.72;47.22;98458.16;4487828;31;20081;-83
2022/06/10 07:18:27;;;;;;;9.32;3.70;;;;;;;26.85;46.86;98456.38;4488147;31;20122;-83
2022/06/10 07:20:52;;;;;;;9.57;3.47;;;;;;;26.97;46.70;98450.44;4487712;31;20292;-83
2022/06/10 07:23:19;;;;;;;9.93;3.53;;;;;;;26.86;47.58;98449.09;4502392;31;20135;-84
2022/06/10 07:25:46;;;;;;;9.75;3.45;;;;;;;27.16;45.64;98452.44;4504100;31;20103;-83
2022/06/10 07:28:11;;;;;;;8.85;3.42;;;;;;;27.04;44.28;98457.56;4503941;31;20214;-83
2022/06/10 07:30:37;;;;;;;9.52;3.90;;;;;;;27.13;44.54;98450.09;4504011;31;20353;-83
2022/06/10 07:33:03;;;;;;;9.27;3.33;;;;;;;27.22;45.76;98465.16;4489815;31;20167;-83
2022/06/10 07:35:28;;;;;;;12.82;3.50;;;;;;;27.13;44.74;98455.50;4504111;31;20080;-84
2022/06/10 07:37:54;;;;;;;9.18;3.50;;;;;;;27.28;44.56;98455.44;4489760;31;20100;-83
2022/06/10 07:43:13;;;;;;;10.73;3.90;;;;;;;26.84;45.97;98456.56;4503953;31;20110;-83
2022/06/10 07:45:39;;;;;;;10.15;4.00;;;;;;;27.02;45.95;98456.91;4503867;31;20369;-83
2022/06/10 07:48:05;;;;;;;9.70;3.90;;;;;;;27.05;45.07;98461.09;4503891;31;20385;-83
2022/06/10 07:50:32;;;;;;;9.85;3.50;;;;;;;27.02;44.88;98467.72;4489358;31;20092;-83
2022/06/10 07:52:57;;;;;;;9.32;3.60;;;;;;;27.14;44.27;98462.59;4489492;31;20147;-83
2022/06/10 07:55:24;;;;;;;8.25;3.67;;;;;;;26.94;44.63;98469.72;4503797;31;20075;-83
2022/06/10 07:57:51;;;;;;;8.27;3.62;;;;;;;27.05;45.17;98464.62;4489658;31;20485;-84
2022/06/10 08:00:16;;;;;;;9.18;3.67;;;;;;;27.43;44.12;98468.84;4503787;31;20471;-83
2022/06/10 08:02:42;;;;;;;9.60;3.90;;;;;;;27.38;44.06;98465.88;4489687;31;20121;-83
2022/06/10 08:05:11;;;;;;;9.73;3.70;;;;;;;27.12;44.71;98466.53;4503990;31;20103;-84
2022/06/10 08:07:39;;;;;;;9.20;3.83;;;;;;;27.49;45.45;98475.28;4489724;31;20122;-83
2022/06/10 08:10:07;;;;;;;11.45;4.00;;;;;;;27.53;43.80;98469.31;4477094;31;20096;-83
2022/06/10 08:12:32;;;;;;;10.52;4.05;;;;;;;27.51;45.58;98470.53;4489316;31;20121;-82
2022/06/10 08:14:58;;;;;;;9.32;4.15;;;;;;;27.37;45.62;98472.31;4503653;31;20072;-83
2022/06/10 08:17:23;;;;;;;12.05;4.25;;;;;;;27.45;45.62;98475.72;4489401;31;20149;-83
2022/06/10 08:19:49;;;;;;;11.65;4.50;;;;;;;27.03;45.93;98473.97;4503969;31;20088;-83
2022/06/10 08:22:32;;;;;;;10.02;4.30;;;;;;;27.29;45.00;98477.91;4504001;31;20084;-83
2022/06/10 08:24:59;;;;;;;9.98;4.20;;;;;;;27.28;45.01;98485.19;4503986;31;20098;-83
2022/06/10 08:27:24;;;;;;;10.45;3.95;;;;;;;27.21;45.62;98489.69;4503941;31;20114;-84
2022/06/10 08:29:50;;;;;;;10.38;4.35;;;;;;;27.34;46.50;98491.66;4489431;31;20100;-84
2022/06/10 08:32:15;;;;;;;11.35;4.60;;;;;;;27.50;45.57;98493.22;4503717;31;20185;-83
2022/06/10 08:34:42;;;;;;;9.50;4.05;;;;;;;27.46;45.36;98493.59;4503486;31;20102;-83
2022/06/10 08:37:08;;;;;;;9.88;4.20;;;;;;;27.62;45.42;98497.00;4503519;31;20538;-83
2022/06/10 08:39:34;;;;;;;10.60;4.20;;;;;;;27.75;45.51;98488.12;4489195;31;20140;-83
2022/06/10 08:42:19;;;;;;;9.57;4.15;;;;;;;27.83;45.51;98493.34;4489224;31;20439;-83
2022/06/10 08:44:52;;;;;;;9.93;4.03;;;;;;;27.88;44.95;98488.22;4503470;31;20084;-83
2022/06/10 08:47:45;;;;;;;10.90;4.60;;;;;;;27.85;45.06;98491.28;4489267;31;20100;-84
2022/06/10 08:50:30;;;;;;;9.50;4.50;;;;;;;27.72;45.77;98493.94;4503717;31;20080;-83
2022/06/10 08:53:29;;;;;;;9.82;4.45;;;;;;;27.76;45.84;98493.34;4489259;31;20127;-83
2022/06/10 08:56:17;;;;;;;9.85;4.47;;;;;;;27.77;46.20;98499.59;4503401;31;20075;-84
2022/06/10 08:59:05;;;;;;;11.77;4.70;;;;;;;27.84;46.23;98493.16;4503428;31;20152;-84
2022/06/10 09:01:45;;;;;;;11.00;4.47;;;;;;;27.96;45.41;98496.16;4489218;31;20100;-84
2022/06/10 09:04:37;;;;;;;9.63;4.60;;;;;;;27.80;46.19;98501.91;4489024;31;20084;-83
2022/06/10 09:07:11;;;;;;;12.10;4.85;;;;;;;27.82;46.87;98506.06;4499339;31;20080;-83
2022/06/10 09:09:38;;;;;;;11.40;4.70;;;;;;;27.81;45.79;98501.69;4503392;31;20114;-84
2022/06/10 09:12:13;;;;;;;10.70;4.90;;;;;;;27.78;45.98;98502.09;4489078;31;20746;-84
2022/06/10 09:14:39;;;;;;;9.45;4.35;;;;;;;27.91;45.39;98506.78;4489059;31;20095;-83
2022/06/10 09:17:07;;;;;;;9.77;4.75;;;;;;;27.54;45.67;98506.13;4503401;31;20364;-83
2022/06/10 09:19:51;;;;;;;10.90;4.53;;;;;;;27.46;46.18;98498.19;4503269;31;20088;-83
2022/06/10 09:23:02;;;;;;;9.48;4.35;;;;;;;27.71;45.95;98497.69;4503171;31;20096;-83
2022/06/10 09:25:37;;;;;;;11.93;4.80;;;;;;;27.75;45.68;98499.78;4410312;32;20300;-83
2022/06/10 09:28:03;;;;;;;9.70;4.40;;;;;;;27.71;46.66;98500.41;4410593;32;20377;-84
2022/06/10 09:30:56;;;;;;;11.32;4.15;;;;;;;27.80;46.68;98501.91;4423003;32;20465;-83
2022/06/10 09:33:40;;;;;;;11.15;4.32;;;;;;;28.00;43.66;98510.94;4362505;32;20103;-83
2022/06/10 09:36:14;;;;;;;12.50;4.60;;;;;;;28.02;44.52;98506.16;4362707;32;20138;-83
2022/06/10 09:38:39;;;;;;;10.85;4.40;;;;;;;27.95;45.45;98501.75;4362460;32;20125;-83
2022/06/10 09:41:18;;;;;;;13.55;5.00;;;;;;;27.85;46.54;98512.94;4362572;32;20131;-83
2022/06/10 09:44:16;;;;;;;10.43;5.00;;;;;;;27.93;45.76;98506.53;4362565;32;20568;-83
2022/06/10 09:46:58;;;;;;;11.63;4.47;;;;;;;28.05;45.26;98507.66;4362092;32;20090;-83
2022/06/10 09:49:29;;;;;;;10.50;4.75;;;;;;;28.01;44.82;98503.69;4362488;32;20498;-83
2022/06/10 09:52:33;;;;;;;9.90;4.55;;;;;;;27.81;46.73;98506.25;4362328;32;20111;-83
2022/06/10 09:55:17;;;;;;;11.52;4.80;;;;;;;27.77;45.96;98513.94;4364058;32;20178;-83
2022/06/10 09:57:43;;;;;;;10.52;4.18;;;;;;;27.87;46.07;98519.00;4438208;32;20086;-83
2022/06/10 10:00:18;;;;;;;11.35;4.80;;;;;;;27.91;45.77;98517.59;4438209;32;20101;-83
2022/06/10 10:03:02;;;;;;;12.93;4.75;;;;;;;27.54;45.32;98510.72;4425355;32;20121;-83
2022/06/10 10:05:27;;;;;;;10.05;4.65;;;;;;;27.55;46.81;98517.81;4438166;32;20168;-83
2022/06/10 10:07:59;;;;;;;10.98;4.37;;;;;;;27.60;46.23;98515.31;4438114;32;20137;-83
2022/06/10 10:10:38;;;;;;;11.90;4.25;;;;;;;27.59;45.64;98516.38;4471234;31;20064;-84
2022/06/10 10:13:23;;;;;;;10.98;4.45;;;;;;;27.90;43.56;98507.81;4488435;31;20107;-83
2022/06/10 10:15:54;;;;;;;9.82;4.70;;;;;;;27.91;44.33;98517.59;4502852;31;20488;-84
2022/06/10 10:18:22;;;;;;;12.15;4.47;;;;;;;27.84;45.33;98519.41;4488443;31;20106;-83
2022/06/10 10:21:08;;;;;;;13.20;4.55;;;;;;;27.78;45.82;98522.94;4502890;31;20484;-83
2022/06/10 10:23:36;;;;;;;9.23;4.35;;;;;;;28.04;45.27;98519.50;4488507;31;20108;-83
2022/06/10 10:26:08;;;;;;;9.85;4.45;;;;;;;27.85;44.63;98519.22;4488511;31;20155;-83
2022/06/10 10:28:37;;;;;;;9.05;3.92;;;;;;;28.11;44.80;98527.66;4488335;31;20516;-83
2022/06/10 10:31:02;;;;;;;10.05;4.78;;;;;;;27.80;44.57;98516.25;4488425;31;20068;-83
2022/06/10 10:33:28;;;;;;;10.85;4.72;;;;;;;28.04;46.11;98520.34;4502629;31;20117;-83
2022/06/10 10:35:56;;;;;;;9.57;4.25;;;;;;;28.10;45.18;98520.56;4502593;31;20149;-84
2022/06/10 10:38:30;;;;;;;9.73;4.15;;;;;;;28.22;45.38;98521.63;4488206;31;20084;-83
2022/06/10 10:40:56;;;;;;;10.73;4.22;;;;;;;28.26;43.50;98517.50;4502618;31;20155;-83
2022/06/10 10:43:25;;;;;;;11.43;4.22;;;;;;;28.23;45.42;98517.91;4488252;31;20114;-83
2022/06/10 10:46:18;;;;;;;9.23;4.35;;;;;;;28.39;45.28;98513.97;4502536;31;20088;-84
2022/06/10 10:48:46;;;;;;;12.07;5.07;;;;;;;28.56;45.36;98514.47;4502110;31;20110;-83
2022/06/10 10:51:11;;;;;;;12.07;5.68;;;;;;;28.65;45.56;98515.09;4488344;31;20099;-83
2022/06/10 10:53:41;;;;;;;11.05;5.80;;;;;;;28.68;45.76;98520.94;4488376;31;20092;-83
2022/06/10 10:56:08;;;;;;;11.02;5.25;;;;;;;28.36;46.28;98515.22;4488412;31;20257;-84
2022/06/10 10:58:41;;;;;;;10.20;4.80;;;;;;;28.02;45.97;98517.00;4502042;31;20129;-84
2022/06/10 11:01:43;;;;;;;10.43;5.03;;;;;;;28.33;45.92;98507.50;4487951;31;20155;-84
2022/06/10 11:03:55;;;;;;;;;;;;;;;28.26;45.88;98512.09;4490576;31;20144;-83
2022/06/10 11:06:36;;;;;;;11.82;4.50;;;;;;;28.44;46.53;98508.78;4502427;31;19980;-84
2022/06/10 11:09:15;;;;;;;10.77;5.12;;;;;;;28.51;46.18;98516.91;4475219;31;20084;-83
2022/06/10 11:11:43;;;;;;;11.52;4.87;;;;;;;28.47;45.66;98507.53;4487816;31;20155;-84
2022/06/10 11:14:35;;;;;;;11.93;5.10;;;;;;;28.48;45.89;98503.78;4502066;31;20138;-84
2022/06/10 11:17:11;;;;;;;11.43;4.57;;;;;;;28.29;45.83;98517.09;4488015;31;20125;-83
2022/06/10 11:19:37;;;;;;;10.13;4.78;;;;;;;28.40;46.01;98512.94;4487849;31;20436;-83
2022/06/10 11:22:02;;;;;;;9.63;4.97;;;;;;;28.50;47.23;98507.97;4502086;31;20106;-84
2022/06/10 11:24:43;;;;;;;10.95;4.97;;;;;;;28.38;46.77;98496.06;4502051;31;20118;-84
2022/06/10 11:27:29;;;;;;;10.02;5.00;;;;;;;28.37;46.87;98508.75;4502180;31;20142;-83
2022/06/10 11:30:04;;;;;;;11.27;4.87;;;;;;;28.22;47.13;98499.97;4501915;31;20088;-83
2022/06/10 11:32:34;;;;;;;11.95;4.90;;;;;;;28.17;47.25;98503.31;4502100;31;20121;-83
2022/06/10 11:35:31;;;;;;;12.88;5.20;;;;;;;28.39;46.41;98495.00;4487552;31;20163;-83
2022/06/10 11:38:22;;;;;;;12.20;5.05;;;;;;;28.17;46.76;98502.47;4502259;31;20130;-84
2022/06/10 11:40:47;;;;;;;13.65;5.32;;;;;;;28.27;46.45;98496.66;4487544;31;20080;-84
2022/06/10 11:43:15;;;;;;;10.18;4.40;;;;;;;28.35;46.44;98491.87;4501770;31;20105;-84
2022/06/10 11:46:02;;;;;;;10.65;5.18;;;;;;;28.35;46.47;98485.63;4501749;31;20100;-83
2022/06/10 11:48:34;;;;;;;9.35;4.62;;;;;;;28.09;46.36;98486.41;4487673;31;20134;-83
2022/06/10 11:51:16;;;;;;;10.52;4.32;;;;;;;28.25;45.93;98483.31;4501559;31;20088;-83
2022/06/10 11:54:04;;;;;;;10.35;5.37;;;;;;;28.18;45.31;98490.59;4501814;31;20099;-83
2022/06/10 12:00:03;;;;;;;11.00;4.55;;;;;;;28.34;43.37;98487.50;4501754;31;20205;-83